Impacts TAF Board INFO
FOR SITUATIONAL AWARENESS. NOT TO BE USED FOR FLIGHT PLANNING PURPOSES.
IDs:

KCLE - Cleveland/Hopkins In, OH, US

Issued at 1123 UTC 18 Dec 2017
Updated at 1243 UTC 18 Dec 2017
Potential Impact None Slight Moderate High
Time<<19/13Z 19/14Z 19/15Z 19/16Z 19/17Z 19/18Z 19/19Z 19/20Z 19/21Z 19/22Z 19/23Z 20/00Z 20/01Z
Type PRVL PRVL PRVL PRVL PRVL
VIS >6 >6 >6 >6 >6
CIG 15 15 15 15 15
Cover OVC OVC OVC OVC OVC
FltCat MVFR MVFR MVFR MVFR MVFR
WX -- -- -- -- --
WDir 220 220 220 220 220
WSpd 14 14 14 14 14
WGst 22 22 22 22 22

Raw TAF
KCLE 181123Z 1812/1918 21009KT P6SM OVC035
  FM181400 21008KT P6SM OVC015
  FM181600 22009KT 4SM -DZ BR VCSH OVC007
  FM182100 24009KT P6SM OVC025
  FM190800 22014G22KT P6SM OVC015


METAR Board
Radar Display
Forecast Discussion

FOR SITUATIONAL AWARENESS. NOT TO BE USED FOR FLIGHT PLANNING PURPOSES.